sensor_id;sensor_type;location;lat;lon;timestamp;pressure;altitude;pressure_sealevel;temperature;humidity
4044;BME280;2036;51.578;7.108;2022-09-09T00:02:10;100084.34;;;15.68;100.00
4044;BME280;2036;51.578;7.108;2022-09-09T00:07:51;100089.59;;;15.60;100.00
4044;BME280;2036;51.578;7.108;2022-09-09T00:13:20;100081.66;;;15.52;100.00
4044;BME280;2036;51.578;7.108;2022-09-09T00:16:19;100082.47;;;15.52;100.00
4044;BME280;2036;51.578;7.108;2022-09-09T00:20:03;100081.66;;;15.52;100.00
4044;BME280;2036;51.578;7.108;2022-09-09T00:22:28;100085.47;;;15.49;100.00
4044;BME280;2036;51.578;7.108;2022-09-09T00:25:16;100080.47;;;15.46;100.00
4044;BME280;2036;51.578;7.108;2022-09-09T00:27:49;100080.31;;;15.48;100.00
4044;BME280;2036;51.578;7.108;2022-09-09T00:30:25;100081.16;;;15.48;100.00
4044;BME280;2036;51.578;7.108;2022-09-09T00:33:01;100074.34;;;15.46;100.00
4044;BME280;2036;51.578;7.108;2022-09-09T00:35:39;100084.25;;;15.44;100.00
4044;BME280;2036;51.578;7.108;2022-09-09T00:45:02;100083.88;;;15.39;100.00
4044;BME280;2036;51.578;7.108;2022-09-09T00:53:15;100079.25;;;15.33;100.00
4044;BME280;2036;51.578;7.108;2022-09-09T00:58:25;100088.16;;;15.24;100.00
4044;BME280;2036;51.578;7.108;2022-09-09T01:03:42;100083.31;;;15.19;100.00
4044;BME280;2036;51.578;7.108;2022-09-09T01:06:33;100079.53;;;15.22;100.00
4044;BME280;2036;51.578;7.108;2022-09-09T01:12:09;100082.16;;;15.14;100.00
4044;BME280;2036;51.578;7.108;2022-09-09T01:14:47;100086.09;;;15.10;100.00
4044;BME280;2036;51.578;7.108;2022-09-09T01:19:59;100086.59;;;15.13;100.00
4044;BME280;2036;51.578;7.108;2022-09-09T01:28:15;100078.53;;;15.23;100.00
4044;BME280;2036;51.578;7.108;2022-09-09T01:30:44;100072.94;;;15.26;100.00
4044;BME280;2036;51.578;7.108;2022-09-09T01:33:17;100069.81;;;15.30;100.00
4044;BME280;2036;51.578;7.108;2022-09-09T01:38:26;100070.19;;;15.35;100.00
4044;BME280;2036;51.578;7.108;2022-09-09T01:40:54;100072.66;;;15.37;100.00
4044;BME280;2036;51.578;7.108;2022-09-09T01:43:21;100079.25;;;15.41;100.00
4044;BME280;2036;51.578;7.108;2022-09-09T01:45:51;100063.75;;;15.38;100.00
4044;BME280;2036;51.578;7.108;2022-09-09T01:48:19;100057.75;;;15.36;100.00
4044;BME280;2036;51.578;7.108;2022-09-09T01:50:46;100059.25;;;15.38;100.00
4044;BME280;2036;51.578;7.108;2022-09-09T01:53:13;100061.25;;;15.36;100.00
4044;BME280;2036;51.578;7.108;2022-09-09T02:02:12;100065.69;;;15.28;100.00
4044;BME280;2036;51.578;7.108;2022-09-09T02:04:50;100064.34;;;15.24;100.00
4044;BME280;2036;51.578;7.108;2022-09-09T02:07:57;100058.66;;;15.11;100.00
4044;BME280;2036;51.578;7.108;2022-09-09T02:10:59;100067.06;;;15.06;100.00
4044;BME280;2036;51.578;7.108;2022-09-09T02:13:28;100068.88;;;15.05;100.00
4044;BME280;2036;51.578;7.108;2022-09-09T02:21:32;100075.13;;;14.96;100.00
4044;BME280;2036;51.578;7.108;2022-09-09T02:24:06;100077.28;;;15.01;100.00
4044;BME280;2036;51.578;7.108;2022-09-09T02:26:40;100076.94;;;14.96;100.00
4044;BME280;2036;51.578;7.108;2022-09-09T02:29:25;100077.75;;;14.96;100.00
4044;BME280;2036;51.578;7.108;2022-09-09T02:31:53;100069.84;;;14.96;100.00
4044;BME280;2036;51.578;7.108;2022-09-09T02:34:23;100071.50;;;14.97;100.00
4044;BME280;2036;51.578;7.108;2022-09-09T02:36:51;100074.28;;;14.96;100.00
4044;BME280;2036;51.578;7.108;2022-09-09T02:39:19;100074.94;;;14.98;100.00
4044;BME280;2036;51.578;7.108;2022-09-09T02:41:44;100078.78;;;15.03;100.00
4044;BME280;2036;51.578;7.108;2022-09-09T02:44:16;100078.63;;;15.05;100.00
4044;BME280;2036;51.578;7.108;2022-09-09T02:50:11;100073.69;;;15.10;100.00
4044;BME280;2036;51.578;7.108;2022-09-09T02:53:18;100072.06;;;15.17;100.00
4044;BME280;2036;51.578;7.108;2022-09-09T02:56:09;100070.25;;;15.18;100.00
4044;BME280;2036;51.578;7.108;2022-09-09T02:58:37;100065.81;;;15.18;100.00
4044;BME280;2036;51.578;7.108;2022-09-09T03:01:04;100070.63;;;15.23;100.00
4044;BME280;2036;51.578;7.108;2022-09-09T03:03:31;100067.81;;;15.24;100.00
4044;BME280;2036;51.578;7.108;2022-09-09T03:05:57;100068.00;;;15.31;100.00
4044;BME280;2036;51.578;7.108;2022-09-09T03:08:23;100069.31;;;15.27;100.00
4044;BME280;2036;51.578;7.108;2022-09-09T03:10:49;100070.19;;;15.35;100.00
4044;BME280;2036;51.578;7.108;2022-09-09T03:13:15;100064.72;;;15.37;100.00
4044;BME280;2036;51.578;7.108;2022-09-09T03:15:42;100056.63;;;15.38;100.00
4044;BME280;2036;51.578;7.108;2022-09-09T03:18:08;100062.44;;;15.42;100.00
4044;BME280;2036;51.578;7.108;2022-09-09T03:20:34;100052.22;;;15.47;100.00
4044;BME280;2036;51.578;7.108;2022-09-09T03:23:01;100057.53;;;15.47;100.00
4044;BME280;2036;51.578;7.108;2022-09-09T03:25:28;100052.56;;;15.52;100.00
4044;BME280;2036;51.578;7.108;2022-09-09T03:27:54;100050.25;;;15.49;100.00
4044;BME280;2036;51.578;7.108;2022-09-09T03:30:27;100053.38;;;15.44;100.00
4044;BME280;2036;51.578;7.108;2022-09-09T03:32:54;100043.09;;;15.41;100.00
4044;BME280;2036;51.578;7.108;2022-09-09T03:35:21;100049.22;;;15.42;100.00
4044;BME280;2036;51.578;7.108;2022-09-09T03:37:47;100042.41;;;15.39;100.00
4044;BME280;2036;51.578;7.108;2022-09-09T03:40:13;100048.19;;;15.35;100.00
4044;BME280;2036;51.578;7.108;2022-09-09T03:42:39;100043.22;;;15.32;100.00
4044;BME280;2036;51.578;7.108;2022-09-09T03:45:11;100045.50;;;15.27;100.00
4044;BME280;2036;51.578;7.108;2022-09-09T03:47:37;100042.72;;;15.28;100.00
4044;BME280;2036;51.578;7.108;2022-09-09T03:50:05;100039.25;;;15.28;100.00
4044;BME280;2036;51.578;7.108;2022-09-09T03:52:38;100039.25;;;15.28;100.00
4044;BME280;2036;51.578;7.108;2022-09-09T03:55:05;100043.03;;;15.25;100.00
4044;BME280;2036;51.578;7.108;2022-09-09T03:57:32;100038.59;;;15.26;100.00
4044;BME280;2036;51.578;7.108;2022-09-09T04:00:05;100041.38;;;15.24;100.00
4044;BME280;2036;51.578;7.108;2022-09-09T04:02:32;100045.69;;;15.25;100.00
4044;BME280;2036;51.578;7.108;2022-09-09T04:04:58;100049.16;;;15.26;100.00
4044;BME280;2036;51.578;7.108;2022-09-09T04:07:25;100038.91;;;15.23;100.00
4044;BME280;2036;51.578;7.108;2022-09-09T04:09:52;100050.31;;;15.23;100.00
4044;BME280;2036;51.578;7.108;2022-09-09T04:12:20;100050.31;;;15.23;100.00
4044;BME280;2036;51.578;7.108;2022-09-09T04:14:46;100052.13;;;15.23;100.00
4044;BME280;2036;51.578;7.108;2022-09-09T04:17:12;100051.81;;;15.26;100.00
4044;BME280;2036;51.578;7.108;2022-09-09T04:19:38;100049.28;;;15.24;100.00
4044;BME280;2036;51.578;7.108;2022-09-09T04:22:04;100058.53;;;15.20;100.00
4044;BME280;2036;51.578;7.108;2022-09-09T04:24:30;100053.44;;;15.19;100.00
4044;BME280;2036;51.578;7.108;2022-09-09T04:26:56;100062.16;;;15.19;100.00
4044;BME280;2036;51.578;7.108;2022-09-09T04:29:22;100050.44;;;15.14;100.00
4044;BME280;2036;51.578;7.108;2022-09-09T04:31:47;100053.56;;;15.09;100.00
4044;BME280;2036;51.578;7.108;2022-09-09T04:34:13;100057.69;;;15.12;100.00
4044;BME280;2036;51.578;7.108;2022-09-09T04:36:39;100054.22;;;15.11;100.00
4044;BME280;2036;51.578;7.108;2022-09-09T04:39:06;100055.38;;;15.08;100.00
4044;BME280;2036;51.578;7.108;2022-09-09T04:41:32;100057.03;;;15.10;100.00
4044;BME280;2036;51.578;7.108;2022-09-09T04:43:58;100057.69;;;15.12;100.00
4044;BME280;2036;51.578;7.108;2022-09-09T04:46:26;100062.97;;;15.12;100.00
4044;BME280;2036;51.578;7.108;2022-09-09T04:48:52;100057.34;;;15.15;100.00
4044;BME280;2036;51.578;7.108;2022-09-09T04:51:20;100061.16;;;15.12;100.00
4044;BME280;2036;51.578;7.108;2022-09-09T04:53:46;100061.84;;;15.14;100.00
4044;BME280;2036;51.578;7.108;2022-09-09T04:56:15;100054.03;;;15.13;100.00
4044;BME280;2036;51.578;7.108;2022-09-09T04:58:42;100059.34;;;15.13;100.00
4044;BME280;2036;51.578;7.108;2022-09-09T05:01:22;100062.63;;;15.15;100.00
4044;BME280;2036;51.578;7.108;2022-09-09T05:03:50;100067.63;;;15.18;100.00
4044;BME280;2036;51.578;7.108;2022-09-09T05:06:20;100064.97;;;15.18;100.00
4044;BME280;2036;51.578;7.108;2022-09-09T05:08:46;100058.06;;;15.17;100.00
4044;BME280;2036;51.578;7.108;2022-09-09T05:11:43;100060.72;;;15.25;100.00
4044;BME280;2036;51.578;7.108;2022-09-09T05:14:09;100060.09;;;15.31;100.00
4044;BME280;2036;51.578;7.108;2022-09-09T05:16:37;100061.22;;;15.28;100.00
4044;BME280;2036;51.578;7.108;2022-09-09T05:19:03;100058.09;;;15.33;100.00
4044;BME280;2036;51.578;7.108;2022-09-09T05:21:30;100064.72;;;15.37;100.00
4044;BME280;2036;51.578;7.108;2022-09-09T05:23:57;100059.78;;;15.42;100.00
4044;BME280;2036;51.578;7.108;2022-09-09T05:26:23;100065.81;;;15.52;100.00
4044;BME280;2036;51.578;7.108;2022-09-09T05:28:53;100058.84;;;15.51;100.00
4044;BME280;2036;51.578;7.108;2022-09-09T05:31:21;100056.84;;;15.53;100.00
4044;BME280;2036;51.578;7.108;2022-09-09T05:33:56;100050.25;;;15.57;100.00
4044;BME280;2036;51.578;7.108;2022-09-09T05:36:23;100046.81;;;15.56;100.00
4044;BME280;2036;51.578;7.108;2022-09-09T05:38:56;100052.56;;;15.60;100.00
4044;BME280;2036;51.578;7.108;2022-09-09T05:41:23;100047.47;;;15.58;100.00
4044;BME280;2036;51.578;7.108;2022-09-09T05:43:49;100054.06;;;15.62;100.00
4044;BME280;2036;51.578;7.108;2022-09-09T05:46:24;100047.31;;;15.68;100.00
4044;BME280;2036;51.578;7.108;2022-09-09T05:48:55;100041.69;;;15.71;100.00
4044;BME280;2036;51.578;7.108;2022-09-09T05:51:33;100053.09;;;15.71;100.00
4044;BME280;2036;51.578;7.108;2022-09-09T05:54:05;100049.63;;;15.71;100.00
4044;BME280;2036;51.578;7.108;2022-09-09T05:56:31;100056.41;;;15.73;100.00
4044;BME280;2036;51.578;7.108;2022-09-09T05:58:58;100052.59;;;15.76;100.00
4044;BME280;2036;51.578;7.108;2022-09-09T06:01:32;100051.44;;;15.79;100.00
4044;BME280;2036;51.578;7.108;2022-09-09T06:04:02;100052.94;;;15.81;100.00
4044;BME280;2036;51.578;7.108;2022-09-09T06:06:38;100052.63;;;15.84;100.00
4044;BME280;2036;51.578;7.108;2022-09-09T06:09:07;100060.25;;;15.87;100.00
4044;BME280;2036;51.578;7.108;2022-09-09T06:11:38;100057.91;;;15.92;100.00
4044;BME280;2036;51.578;7.108;2022-09-09T06:14:05;100060.41;;;15.94;100.00
4044;BME280;2036;51.578;7.108;2022-09-09T06:16:32;100057.94;;;16.00;100.00
4044;BME280;2036;51.578;7.108;2022-09-09T06:19:00;100062.91;;;16.03;100.00
4044;BME280;2036;51.578;7.108;2022-09-09T06:21:37;100059.75;;;16.08;100.00
4044;BME280;2036;51.578;7.108;2022-09-09T06:24:04;100065.53;;;16.11;100.00
4044;BME280;2036;51.578;7.108;2022-09-09T06:26:34;100061.22;;;16.18;100.00
4044;BME280;2036;51.578;7.108;2022-09-09T06:29:04;100062.06;;;16.27;100.00
4044;BME280;2036;51.578;7.108;2022-09-09T06:31:33;100062.88;;;16.27;100.00
4044;BME280;2036;51.578;7.108;2022-09-09T06:34:05;100064.69;;;16.35;100.00
4044;BME280;2036;51.578;7.108;2022-09-09T06:36:35;100065.84;;;16.40;100.00
4044;BME280;2036;51.578;7.108;2022-09-09T06:39:04;100065.19;;;16.47;100.00
4044;BME280;2036;51.578;7.108;2022-09-09T06:41:33;100065.34;;;16.61;100.00
4044;BME280;2036;51.578;7.108;2022-09-09T06:44:00;100059.88;;;16.71;100.00
4044;BME280;2036;51.578;7.108;2022-09-09T06:46:29;100054.22;;;16.82;100.00
4044;BME280;2036;51.578;7.108;2022-09-09T06:48:58;100063.78;;;16.99;100.00
4044;BME280;2036;51.578;7.108;2022-09-09T06:51:35;100057.44;;;17.08;100.00
4044;BME280;2036;51.578;7.108;2022-09-09T06:54:06;100061.69;;;17.25;100.00
4044;BME280;2036;51.578;7.108;2022-09-09T06:56:36;100059.66;;;17.35;100.00
4044;BME280;2036;51.578;7.108;2022-09-09T06:59:06;100059.91;;;17.48;100.00
4044;BME280;2036;51.578;7.108;2022-09-09T07:01:43;100062.06;;;17.53;100.00
4044;BME280;2036;51.578;7.108;2022-09-09T07:04:19;100067.47;;;17.67;100.00
4044;BME280;2036;51.578;7.108;2022-09-09T07:06:47;100066.47;;;17.68;100.00
4044;BME280;2036;51.578;7.108;2022-09-09T07:09:15;100071.06;;;17.74;100.00
4044;BME280;2036;51.578;7.108;2022-09-09T07:11:46;100061.94;;;17.77;100.00
4044;BME280;2036;51.578;7.108;2022-09-09T07:14:16;100070.34;;;17.81;100.00
4044;BME280;2036;51.578;7.108;2022-09-09T07:16:45;100064.69;;;17.84;100.00
4044;BME280;2036;51.578;7.108;2022-09-09T07:19:13;100066.66;;;17.90;100.00
4044;BME280;2036;51.578;7.108;2022-09-09T07:21:41;100069.25;;;17.98;100.00
4044;BME280;2036;51.578;7.108;2022-09-09T07:24:08;100067.06;;;18.01;100.00
4044;BME280;2036;51.578;7.108;2022-09-09T07:26:37;100080.66;;;18.06;100.00
4044;BME280;2036;51.578;7.108;2022-09-09T07:29:04;100082.13;;;18.09;100.00
4044;BME280;2036;51.578;7.108;2022-09-09T07:31:38;100076.81;;;18.09;100.00
4044;BME280;2036;51.578;7.108;2022-09-09T07:34:06;100085.56;;;18.09;100.00
4044;BME280;2036;51.578;7.108;2022-09-09T07:36:39;100084.47;;;18.04;100.00
4044;BME280;2036;51.578;7.108;2022-09-09T07:39:12;100081.00;;;18.03;100.00
4044;BME280;2036;51.578;7.108;2022-09-09T07:41:46;100082.22;;;18.15;100.00
4044;BME280;2036;51.578;7.108;2022-09-09T07:44:17;100082.34;;;18.22;100.00
4044;BME280;2036;51.578;7.108;2022-09-09T07:46:45;100084.47;;;18.26;100.00
4044;BME280;2036;51.578;7.108;2022-09-09T07:49:11;100080.13;;;18.25;100.00
4044;BME280;2036;51.578;7.108;2022-09-09T07:51:46;100088.69;;;18.35;100.00
4044;BME280;2036;51.578;7.108;2022-09-09T07:54:16;100085.75;;;18.53;100.00
4044;BME280;2036;51.578;7.108;2022-09-09T07:56:46;100091.25;;;18.66;100.00
4044;BME280;2036;51.578;7.108;2022-09-09T07:59:13;100086.53;;;18.76;100.00
4044;BME280;2036;51.578;7.108;2022-09-09T08:01:47;100092.50;;;19.07;100.00
4044;BME280;2036;51.578;7.108;2022-09-09T08:04:18;100091.13;;;19.11;100.00
4044;BME280;2036;51.578;7.108;2022-09-09T08:06:51;100098.16;;;19.34;100.00
4044;BME280;2036;51.578;7.108;2022-09-09T08:09:18;100093.31;;;19.37;100.00
4044;BME280;2036;51.578;7.108;2022-09-09T08:11:45;100105.06;;;19.43;100.00
4044;BME280;2036;51.578;7.108;2022-09-09T08:14:12;100083.22;;;19.47;100.00
4044;BME280;2036;51.578;7.108;2022-09-09T08:16:45;100095.22;;;19.58;100.00
4044;BME280;2036;51.578;7.108;2022-09-09T08:19:12;100090.28;;;19.76;100.00
4044;BME280;2036;51.578;7.108;2022-09-09T08:21:42;100087.22;;;19.94;100.00
4044;BME280;2036;51.578;7.108;2022-09-09T08:24:09;100092.75;;;20.13;100.00
4044;BME280;2036;51.578;7.108;2022-09-09T08:26:44;100077.16;;;20.31;100.00
4044;BME280;2036;51.578;7.108;2022-09-09T08:29:12;100089.56;;;20.45;100.00
4044;BME280;2036;51.578;7.108;2022-09-09T08:31:44;100093.34;;;20.85;100.00
4044;BME280;2036;51.578;7.108;2022-09-09T08:34:11;100097.22;;;21.10;100.00
4044;BME280;2036;51.578;7.108;2022-09-09T08:36:43;100103.91;;;21.34;100.00
4044;BME280;2036;51.578;7.108;2022-09-09T08:39:12;100097.91;;;21.73;100.00
4044;BME280;2036;51.578;7.108;2022-09-09T08:45:05;100095.94;;;23.06;100.00
4044;BME280;2036;51.578;7.108;2022-09-09T08:48:36;100093.44;;;23.75;100.00
4044;BME280;2036;51.578;7.108;2022-09-09T08:51:06;100107.31;;;24.03;100.00
4044;BME280;2036;51.578;7.108;2022-09-09T08:53:42;100111.41;;;24.12;100.00
4044;BME280;2036;51.578;7.108;2022-09-09T08:56:21;100094.50;;;24.05;100.00
4044;BME280;2036;51.578;7.108;2022-09-09T08:58:51;100104.22;;;24.06;100.00
4044;BME280;2036;51.578;7.108;2022-09-09T09:11:08;100102.75;;;23.02;100.00
4044;BME280;2036;51.578;7.108;2022-09-09T09:18:42;100118.28;;;23.95;100.00
4044;BME280;2036;51.578;7.108;2022-09-09T09:21:36;100093.50;;;24.31;100.00
4044;BME280;2036;51.578;7.108;2022-09-09T09:24:49;100101.72;;;24.36;100.00
4044;BME280;2036;51.578;7.108;2022-09-09T09:27:33;100114.84;;;24.26;100.00
4044;BME280;2036;51.578;7.108;2022-09-09T09:30:15;100110.13;;;24.15;100.00
4044;BME280;2036;51.578;7.108;2022-09-09T09:35:26;100108.19;;;23.91;100.00
4044;BME280;2036;51.578;7.108;2022-09-09T09:37:52;100117.97;;;23.78;100.00
4044;BME280;2036;51.578;7.108;2022-09-09T09:40:21;100111.84;;;23.65;100.00
4044;BME280;2036;51.578;7.108;2022-09-09T09:43:18;100113.22;;;23.80;100.00
4044;BME280;2036;51.578;7.108;2022-09-09T09:45:55;100117.16;;;23.78;100.00
4044;BME280;2036;51.578;7.108;2022-09-09T09:48:21;100114.34;;;23.53;100.00
4044;BME280;2036;51.578;7.108;2022-09-09T09:50:53;100108.25;;;23.33;100.00
4044;BME280;2036;51.578;7.108;2022-09-09T09:53:29;100115.75;;;22.98;100.00
4044;BME280;2036;51.578;7.108;2022-09-09T09:56:01;100123.81;;;22.72;100.00
4044;BME280;2036;51.578;7.108;2022-09-09T09:58:31;100100.75;;;22.52;100.00
4044;BME280;2036;51.578;7.108;2022-09-09T10:01:00;100108.56;;;22.66;100.00
4044;BME280;2036;51.578;7.108;2022-09-09T10:03:28;100108.38;;;22.74;100.00
4044;BME280;2036;51.578;7.108;2022-09-09T10:05:55;100110.44;;;22.66;100.00
4044;BME280;2036;51.578;7.108;2022-09-09T10:08:24;100106.28;;;22.43;100.00
4044;BME280;2036;51.578;7.108;2022-09-09T10:20:23;100124.38;;;21.61;100.00
4044;BME280;2036;51.578;7.108;2022-09-09T10:26:59;100104.84;;;21.61;100.00
4044;BME280;2036;51.578;7.108;2022-09-09T10:33:10;100117.69;;;21.38;100.00
4044;BME280;2036;51.578;7.108;2022-09-09T10:36:13;100112.09;;;21.26;100.00
4044;BME280;2036;51.578;7.108;2022-09-09T10:38:50;100111.91;;;21.34;100.00
4044;BME280;2036;51.578;7.108;2022-09-09T10:41:37;100112.22;;;21.52;100.00
4044;BME280;2036;51.578;7.108;2022-09-09T10:44:16;100099.47;;;22.02;100.00
4044;BME280;2036;51.578;7.108;2022-09-09T10:52:40;100091.16;;;23.78;100.00
4044;BME280;2036;51.578;7.108;2022-09-09T10:55:23;100085.22;;;23.70;100.00
4044;BME280;2036;51.578;7.108;2022-09-09T10:57:58;100099.38;;;23.39;100.00
4044;BME280;2036;51.578;7.108;2022-09-09T11:03:05;100090.19;;;23.02;100.00
4044;BME280;2036;51.578;7.108;2022-09-09T11:05:46;100086.72;;;22.95;100.00
4044;BME280;2036;51.578;7.108;2022-09-09T11:08:34;100093.09;;;22.88;100.00
4044;BME280;2036;51.578;7.108;2022-09-09T11:12:13;100104.66;;;22.69;100.00
4044;BME280;2036;51.578;7.108;2022-09-09T11:14:36;100091.28;;;22.49;100.00
4044;BME280;2036;51.578;7.108;2022-09-09T11:17:19;100084.25;;;22.22;100.00
4044;BME280;2036;51.578;7.108;2022-09-09T11:19:47;100094.75;;;22.17;100.00
4044;BME280;2036;51.578;7.108;2022-09-09T11:25:21;100090.00;;;22.06;100.00
4044;BME280;2036;51.578;7.108;2022-09-09T11:28:38;100091.97;;;21.77;100.00
4044;BME280;2036;51.578;7.108;2022-09-09T11:31:38;100091.03;;;21.51;100.00
4044;BME280;2036;51.578;7.108;2022-09-09T11:42:23;100087.66;;;20.95;100.00
4044;BME280;2036;51.578;7.108;2022-09-09T11:44:50;100100.16;;;20.94;100.00
4044;BME280;2036;51.578;7.108;2022-09-09T11:47:31;100094.16;;;21.13;100.00
4044;BME280;2036;51.578;7.108;2022-09-09T11:52:44;100086.78;;;21.63;100.00
4044;BME280;2036;51.578;7.108;2022-09-09T11:55:32;100072.66;;;21.75;100.00
4044;BME280;2036;51.578;7.108;2022-09-09T12:00:41;100062.44;;;21.86;100.00
4044;BME280;2036;51.578;7.108;2022-09-09T12:03:46;100068.94;;;21.76;100.00
4044;BME280;2036;51.578;7.108;2022-09-09T12:06:31;100065.41;;;21.63;100.00
4044;BME280;2036;51.578;7.108;2022-09-09T12:17:28;100090.91;;;21.25;100.00
4044;BME280;2036;51.578;7.108;2022-09-09T12:25:37;100106.63;;;19.88;100.00
4044;BME280;2036;51.578;7.108;2022-09-09T12:28:22;100109.19;;;19.81;100.00
4044;BME280;2036;51.578;7.108;2022-09-09T12:33:45;100102.25;;;20.01;100.00
4044;BME280;2036;51.578;7.108;2022-09-09T12:36:23;100095.59;;;20.33;100.00
4044;BME280;2036;51.578;7.108;2022-09-09T12:38:50;100085.50;;;20.50;100.00
4044;BME280;2036;51.578;7.108;2022-09-09T12:41:27;100093.66;;;20.41;100.00
4044;BME280;2036;51.578;7.108;2022-09-09T12:44:06;100091.97;;;20.19;100.00
4044;BME280;2036;51.578;7.108;2022-09-09T12:46:39;100082.81;;;20.22;100.00
4044;BME280;2036;51.578;7.108;2022-09-09T12:49:26;100085.13;;;20.10;100.00
4044;BME280;2036;51.578;7.108;2022-09-09T12:51:53;100095.31;;;19.86;100.00
4044;BME280;2036;51.578;7.108;2022-09-09T12:54:19;100094.31;;;19.87;100.00
4044;BME280;2036;51.578;7.108;2022-09-09T12:56:46;100092.72;;;19.71;100.00
4044;BME280;2036;51.578;7.108;2022-09-09T12:59:41;100078.75;;;19.69;100.00
4044;BME280;2036;51.578;7.108;2022-09-09T13:02:26;100083.22;;;19.83;100.00
4044;BME280;2036;51.578;7.108;2022-09-09T13:04:53;100080.06;;;19.94;100.00
4044;BME280;2036;51.578;7.108;2022-09-09T13:07:21;100070.03;;;19.96;100.00
4044;BME280;2036;51.578;7.108;2022-09-09T13:09:48;100077.03;;;19.97;100.00
4044;BME280;2036;51.578;7.108;2022-09-09T13:12:18;100072.75;;;20.03;100.00
4044;BME280;2036;51.578;7.108;2022-09-09T13:14:53;100100.47;;;19.87;100.00
4044;BME280;2036;51.578;7.108;2022-09-09T13:17:24;100105.84;;;19.58;100.00
4044;BME280;2036;51.578;7.108;2022-09-09T13:19:52;100103.31;;;19.35;100.00
4044;BME280;2036;51.578;7.108;2022-09-09T13:22:37;100105.81;;;19.07;100.00
4044;BME280;2036;51.578;7.108;2022-09-09T13:27:40;100098.59;;;18.64;100.00
4044;BME280;2036;51.578;7.108;2022-09-09T13:35:45;100108.72;;;18.23;100.00
4044;BME280;2036;51.578;7.108;2022-09-09T13:38:16;100107.47;;;18.11;100.00
4044;BME280;2036;51.578;7.108;2022-09-09T13:40:57;100114.88;;;18.01;100.00
4044;BME280;2036;51.578;7.108;2022-09-09T13:43:26;100096.38;;;18.08;100.00
4044;BME280;2036;51.578;7.108;2022-09-09T13:46:02;100103.19;;;18.10;100.00
4044;BME280;2036;51.578;7.108;2022-09-09T13:48:28;100099.16;;;18.14;100.00
4044;BME280;2036;51.578;7.108;2022-09-09T13:51:04;100095.63;;;18.22;100.00
4044;BME280;2036;51.578;7.108;2022-09-09T13:53:31;100096.38;;;18.30;100.00
4044;BME280;2036;51.578;7.108;2022-09-09T13:55:58;100104.38;;;18.45;100.00
4044;BME280;2036;51.578;7.108;2022-09-09T13:58:27;100097.16;;;18.39;100.00
4044;BME280;2036;51.578;7.108;2022-09-09T14:00:53;100085.75;;;18.53;100.00
4044;BME280;2036;51.578;7.108;2022-09-09T14:03:20;100095.66;;;18.59;100.00
4044;BME280;2036;51.578;7.108;2022-09-09T14:05:47;100105.75;;;18.64;100.00
4044;BME280;2036;51.578;7.108;2022-09-09T14:08:21;100108.09;;;18.59;100.00
4044;BME280;2036;51.578;7.108;2022-09-09T14:10:48;100107.31;;;18.58;100.00
4044;BME280;2036;51.578;7.108;2022-09-09T14:13:13;100095.59;;;18.67;100.00
4044;BME280;2036;51.578;7.108;2022-09-09T14:15:40;100083.28;;;18.66;100.00
4044;BME280;2036;51.578;7.108;2022-09-09T14:18:08;100082.47;;;18.80;100.00
4044;BME280;2036;51.578;7.108;2022-09-09T14:20:34;100083.59;;;19.00;100.00
4044;BME280;2036;51.578;7.108;2022-09-09T14:23:00;100080.28;;;19.28;100.00
4044;BME280;2036;51.578;7.108;2022-09-09T14:25:26;100065.84;;;19.51;100.00
4044;BME280;2036;51.578;7.108;2022-09-09T14:27:52;100071.88;;;19.60;100.00
4044;BME280;2036;51.578;7.108;2022-09-09T14:30:18;100067.84;;;19.64;100.00
4044;BME280;2036;51.578;7.108;2022-09-09T14:32:44;100067.03;;;19.63;100.00
4044;BME280;2036;51.578;7.108;2022-09-09T14:35:10;100073.19;;;19.64;100.00
4044;BME280;2036;51.578;7.108;2022-09-09T14:37:35;100063.03;;;19.74;100.00
4044;BME280;2036;51.578;7.108;2022-09-09T14:40:01;100067.47;;;19.67;100.00
4044;BME280;2036;51.578;7.108;2022-09-09T14:42:27;100063.84;;;19.74;100.00
4044;BME280;2036;51.578;7.108;2022-09-09T14:44:54;100058.09;;;19.71;100.00
4044;BME280;2036;51.578;7.108;2022-09-09T14:47:20;100070.38;;;19.72;100.00
4044;BME280;2036;51.578;7.108;2022-09-09T14:49:46;100060.56;;;19.72;100.00
4044;BME280;2036;51.578;7.108;2022-09-09T14:52:15;100063.44;;;19.71;100.00
4044;BME280;2036;51.578;7.108;2022-09-09T14:54:41;100063.13;;;19.45;100.00
4044;BME280;2036;51.578;7.108;2022-09-09T14:57:07;100063.13;;;19.45;100.00
4044;BME280;2036;51.578;7.108;2022-09-09T14:59:33;100067.59;;;19.30;100.00
4044;BME280;2036;51.578;7.108;2022-09-09T15:01:59;100068.44;;;19.16;100.00
4044;BME280;2036;51.578;7.108;2022-09-09T15:04:29;100070.19;;;19.08;100.00
4044;BME280;2036;51.578;7.108;2022-09-09T15:06:55;100056.09;;;18.93;100.00
4044;BME280;2036;51.578;7.108;2022-09-09T15:09:21;100062.41;;;18.78;100.00
4044;BME280;2036;51.578;7.108;2022-09-09T15:11:47;100062.31;;;18.71;100.00
4044;BME280;2036;51.578;7.108;2022-09-09T15:14:12;100083.63;;;18.63;100.00
4044;BME280;2036;51.578;7.108;2022-09-09T15:16:39;100093.75;;;18.45;100.00
4044;BME280;2036;51.578;7.108;2022-09-09T15:19:05;100099.81;;;18.16;100.00
4044;BME280;2036;51.578;7.108;2022-09-09T15:21:35;100108.41;;;17.96;100.00
4044;BME280;2036;51.578;7.108;2022-09-09T15:24:01;100119.31;;;17.78;100.00
4044;BME280;2036;51.578;7.108;2022-09-09T15:26:28;100109.28;;;17.65;100.00
4044;BME280;2036;51.578;7.108;2022-09-09T15:28:55;100117.00;;;17.36;100.00
4044;BME280;2036;51.578;7.108;2022-09-09T15:31:29;100121.53;;;17.20;100.00
4044;BME280;2036;51.578;7.108;2022-09-09T15:33:59;100117.44;;;17.09;100.00
4044;BME280;2036;51.578;7.108;2022-09-09T15:39:03;100104.56;;;16.82;100.00
4044;BME280;2036;51.578;7.108;2022-09-09T15:41:31;100110.53;;;16.76;100.00
4044;BME280;2036;51.578;7.108;2022-09-09T15:43:59;100109.75;;;16.67;100.00
4044;BME280;2036;51.578;7.108;2022-09-09T15:46:35;100117.19;;;16.64;100.00
4044;BME280;2036;51.578;7.108;2022-09-09T15:49:07;100101.97;;;16.58;100.00
4044;BME280;2036;51.578;7.108;2022-09-09T15:51:39;100110.91;;;16.57;100.00